createdAt,value
2022-10-24T00:01:11.442Z,6.25
2022-10-24T00:03:38.784Z,8.30
2022-10-24T00:06:07.557Z,11.68
2022-10-24T00:08:35.862Z,10.65
2022-10-24T00:11:08.115Z,7.15
2022-10-24T00:13:34.943Z,7.88
2022-10-24T00:16:01.693Z,11.93
2022-10-24T00:18:28.465Z,7.55
2022-10-24T00:20:55.221Z,8.93
2022-10-24T00:23:21.962Z,8.20
2022-10-24T00:25:48.745Z,8.10
2022-10-24T00:28:15.500Z,6.53
2022-10-24T00:30:42.257Z,8.10
2022-10-24T00:33:09.110Z,6.32
2022-10-24T00:35:35.897Z,8.23
2022-10-24T00:38:02.680Z,7.38
2022-10-24T00:40:29.493Z,6.85
2022-10-24T00:42:56.237Z,6.55
2022-10-24T00:45:40.519Z,9.70
2022-10-24T00:48:27.891Z,6.20
2022-10-24T00:51:00.746Z,7.60
2022-10-24T00:53:29.730Z,7.30
2022-10-24T00:56:00.854Z,6.80
2022-10-24T00:58:30.870Z,7.20
2022-10-24T01:00:58.361Z,8.88
2022-10-24T01:03:25.516Z,6.60
2022-10-24T01:06:34.134Z,14.27
2022-10-24T01:09:11.231Z,10.05
2022-10-24T01:12:03.102Z,8.55
2022-10-24T01:15:11.801Z,9.63
2022-10-24T01:17:52.231Z,8.15
2022-10-24T01:20:24.948Z,7.20
2022-10-24T01:23:15.440Z,10.00
2022-10-24T01:25:51.145Z,7.03
2022-10-24T01:28:19.329Z,7.95
2022-10-24T01:30:51.211Z,10.35
2022-10-24T01:33:33.773Z,10.85
2022-10-24T01:36:13.844Z,8.50
2022-10-24T01:39:03.706Z,11.48
2022-10-24T01:41:33.211Z,12.13
2022-10-24T01:44:09.037Z,9.40
2022-10-24T01:49:20.117Z,11.60
2022-10-24T01:51:52.001Z,10.02
2022-10-24T01:54:19.700Z,11.38
2022-10-24T01:56:46.547Z,9.48
2022-10-24T01:59:28.712Z,11.32
2022-10-24T02:02:06.556Z,13.90
2022-10-24T02:04:36.053Z,10.60
2022-10-24T02:07:07.560Z,8.73
2022-10-24T02:09:38.235Z,13.73
2022-10-24T02:12:10.729Z,11.40
2022-10-24T02:14:44.766Z,13.75
2022-10-24T02:17:11.727Z,10.55
2022-10-24T02:19:38.565Z,7.43
2022-10-24T02:22:21.655Z,13.20
2022-10-24T02:24:59.886Z,10.88
2022-10-24T02:27:43.596Z,11.13
2022-10-24T02:30:21.896Z,12.05
2022-10-24T02:32:56.452Z,11.20
2022-10-24T02:35:27.563Z,10.55
2022-10-24T02:38:00.024Z,11.52
2022-10-24T02:40:27.174Z,12.18
2022-10-24T02:42:58.436Z,15.18
2022-10-24T02:45:26.517Z,16.85
2022-10-24T02:47:57.895Z,9.40
2022-10-24T02:50:25.304Z,11.57
2022-10-24T02:52:52.144Z,13.00
2022-10-24T02:55:19.111Z,15.98
2022-10-24T02:57:45.856Z,10.98
2022-10-24T03:00:13.135Z,10.88
2022-10-24T03:02:39.890Z,11.88
2022-10-24T03:05:06.962Z,11.50
2022-10-24T03:07:33.788Z,12.40
2022-10-24T03:10:00.648Z,13.88
2022-10-24T03:12:27.476Z,12.00
2022-10-24T03:14:54.344Z,14.02
2022-10-24T03:17:21.913Z,9.82
2022-10-24T03:19:48.756Z,15.23
2022-10-24T03:22:15.552Z,12.82
2022-10-24T03:24:44.500Z,13.45
2022-10-24T03:27:21.626Z,12.48
2022-10-24T03:29:48.383Z,13.77
2022-10-24T03:32:15.287Z,10.98
2022-10-24T03:34:42.194Z,14.00
2022-10-24T03:37:09.086Z,9.77
2022-10-24T03:39:35.974Z,11.48
2022-10-24T03:42:02.775Z,13.15
2022-10-24T03:44:29.849Z,13.00
2022-10-24T03:46:56.565Z,14.45
2022-10-24T03:49:23.362Z,13.68
2022-10-24T03:51:50.102Z,13.77
2022-10-24T03:54:16.904Z,14.85
2022-10-24T03:56:45.073Z,12.98
2022-10-24T03:59:11.809Z,12.10
2022-10-24T04:01:38.712Z,11.93
2022-10-24T04:04:05.745Z,10.45
2022-10-24T04:06:35.623Z,10.55
2022-10-24T04:09:03.919Z,15.35
2022-10-24T04:11:30.906Z,13.27
2022-10-24T04:13:57.937Z,13.93
2022-10-24T04:16:24.786Z,15.43
2022-10-24T04:18:51.610Z,12.48
2022-10-24T04:21:21.520Z,18.90
2022-10-24T04:23:48.993Z,14.98
2022-10-24T04:26:18.512Z,13.90
2022-10-24T04:28:47.012Z,14.45
2022-10-24T04:31:16.876Z,13.55
2022-10-24T04:33:46.541Z,12.32
2022-10-24T04:36:13.387Z,13.07
2022-10-24T04:38:40.351Z,17.88
2022-10-24T04:41:09.865Z,15.55
2022-10-24T04:43:39.113Z,15.55
2022-10-24T04:46:06.050Z,13.57
2022-10-24T04:48:32.994Z,12.93
2022-10-24T04:50:59.856Z,14.70
2022-10-24T04:53:26.866Z,16.58
2022-10-24T04:55:53.629Z,14.80
2022-10-24T04:58:21.023Z,17.35
2022-10-24T05:00:49.820Z,15.32
2022-10-24T05:03:20.600Z,16.20
2022-10-24T05:05:48.345Z,12.38
2022-10-24T05:08:15.758Z,13.93
2022-10-24T05:10:42.583Z,13.90
2022-10-24T05:13:09.366Z,15.75
2022-10-24T05:15:36.284Z,12.73
2022-10-24T05:18:03.770Z,16.35
2022-10-24T05:20:31.134Z,18.25
2022-10-24T05:22:57.951Z,13.15
2022-10-24T05:25:24.816Z,15.88
2022-10-24T05:27:51.681Z,19.70
2022-10-24T05:30:18.540Z,13.95
2022-10-24T05:32:46.361Z,18.20
2022-10-24T05:35:13.578Z,15.90
2022-10-24T05:37:40.439Z,18.27
2022-10-24T05:40:09.658Z,15.52
2022-10-24T05:42:38.592Z,18.13
2022-10-24T05:45:07.379Z,18.45
2022-10-24T05:47:34.365Z,13.98
2022-10-24T05:50:01.092Z,17.95
2022-10-24T05:52:28.077Z,20.13
2022-10-24T05:54:55.790Z,20.92
2022-10-24T05:57:33.736Z,21.95
2022-10-24T06:00:00.971Z,21.15
2022-10-24T06:02:27.966Z,17.17
2022-10-24T06:04:56.181Z,16.85
2022-10-24T06:07:23.398Z,20.58
2022-10-24T06:09:50.276Z,19.33
2022-10-24T06:12:17.233Z,21.88
2022-10-24T06:14:44.838Z,20.13
2022-10-24T06:17:14.854Z,14.82
2022-10-24T06:19:41.796Z,13.77
2022-10-24T06:22:10.283Z,12.77
2022-10-24T06:24:38.309Z,14.85
2022-10-24T06:27:06.151Z,19.85
2022-10-24T06:29:33.435Z,15.48
2022-10-24T06:32:00.414Z,15.00
2022-10-24T06:34:27.833Z,16.38
2022-10-24T06:36:54.836Z,15.93
2022-10-24T06:39:21.668Z,14.25
2022-10-24T06:41:48.413Z,18.98
2022-10-24T06:44:15.427Z,19.55
2022-10-24T06:46:42.204Z,16.58
2022-10-24T06:49:10.006Z,16.02
2022-10-24T06:51:36.821Z,17.65
2022-10-24T06:54:03.723Z,14.75
2022-10-24T06:56:30.489Z,17.50
2022-10-24T06:58:57.411Z,14.73
2022-10-24T07:01:25.964Z,18.40
2022-10-24T07:03:53.855Z,20.67
2022-10-24T07:08:58.266Z,18.75
2022-10-24T07:11:26.043Z,21.08
2022-10-24T07:13:55.303Z,17.23
2022-10-24T07:16:25.323Z,22.40
2022-10-24T07:18:52.405Z,18.60
2022-10-24T07:21:22.926Z,21.83
2022-10-24T07:23:51.773Z,16.88
2022-10-24T07:26:19.762Z,19.40
2022-10-24T07:28:47.698Z,19.83
2022-10-24T07:31:18.058Z,20.17
2022-10-24T07:33:45.091Z,16.80
2022-10-24T07:36:19.971Z,20.73
2022-10-24T07:38:51.022Z,21.97
2022-10-24T07:41:18.682Z,20.25
2022-10-24T07:43:46.249Z,24.02
2022-10-24T07:46:15.489Z,25.70
2022-10-24T07:48:45.170Z,26.55
2022-10-24T07:51:14.676Z,24.80
2022-10-24T07:53:42.344Z,26.08
2022-10-24T07:56:13.243Z,24.85
2022-10-24T07:58:40.777Z,24.70
2022-10-24T08:01:10.601Z,27.98
2022-10-24T08:03:37.672Z,22.10
2022-10-24T08:06:06.029Z,21.27
2022-10-24T08:08:37.106Z,25.17
2022-10-24T08:11:19.311Z,24.55
2022-10-24T08:13:46.198Z,24.02
2022-10-24T08:16:15.171Z,28.10
2022-10-24T08:18:42.300Z,30.88
2022-10-24T08:21:12.450Z,27.52
2022-10-24T08:23:42.345Z,26.67
2022-10-24T08:26:12.187Z,27.95
2022-10-24T08:28:39.584Z,29.05
2022-10-24T08:31:10.352Z,26.52
2022-10-24T08:33:37.188Z,24.67
2022-10-24T08:36:11.858Z,29.40
2022-10-24T08:38:38.711Z,22.52
2022-10-24T08:41:06.968Z,31.10
2022-10-24T08:43:33.768Z,30.80
2022-10-24T08:46:12.453Z,22.85
2022-10-24T08:48:49.878Z,29.45
2022-10-24T08:59:37.868Z,24.88
2022-10-24T09:02:21.383Z,27.95
2022-10-24T09:05:11.221Z,26.45
2022-10-24T09:07:38.579Z,23.80
2022-10-24T09:10:15.662Z,22.90
2022-10-24T09:12:42.486Z,20.85
2022-10-24T09:15:28.537Z,22.30
2022-10-24T09:17:57.017Z,21.48
2022-10-24T09:20:30.515Z,25.20
2022-10-24T09:23:00.619Z,23.13
2022-10-24T09:25:31.823Z,20.52
2022-10-24T09:28:01.374Z,23.08
2022-10-24T09:30:31.629Z,18.33
2022-10-24T09:33:24.319Z,22.20
2022-10-24T09:35:54.170Z,17.88
2022-10-24T09:38:25.468Z,22.30
2022-10-24T09:40:55.640Z,22.65
2022-10-24T09:43:31.792Z,32.63
2022-10-24T09:46:04.775Z,24.25
2022-10-24T09:48:56.865Z,24.23
2022-10-24T09:51:28.262Z,29.27
2022-10-24T09:54:07.154Z,24.10
2022-10-24T09:56:40.127Z,22.58
2022-10-24T09:59:18.976Z,21.80
2022-10-24T10:01:46.187Z,25.45
2022-10-24T10:04:18.456Z,23.02
2022-10-24T10:06:50.194Z,18.52
2022-10-24T10:09:26.382Z,22.05
2022-10-24T10:12:05.048Z,24.35
2022-10-24T10:14:32.582Z,23.40
2022-10-24T10:17:05.714Z,21.85
2022-10-24T10:19:37.130Z,18.67
2022-10-24T10:22:21.272Z,19.77
2022-10-24T10:24:48.322Z,15.52
2022-10-24T10:27:39.395Z,18.95
2022-10-24T10:30:12.414Z,19.90
2022-10-24T10:32:41.967Z,22.58
2022-10-24T10:35:24.501Z,18.85
2022-10-24T10:38:16.215Z,19.33
2022-10-24T10:40:53.612Z,19.10
2022-10-24T10:43:52.264Z,22.70
2022-10-24T10:46:24.770Z,18.67
2022-10-24T10:49:03.106Z,22.83
2022-10-24T10:51:39.227Z,20.67
2022-10-24T10:54:44.054Z,24.00
2022-10-24T10:57:22.338Z,23.90
2022-10-24T11:00:09.634Z,21.77
2022-10-24T11:02:39.706Z,24.17
2022-10-24T11:05:22.196Z,17.38
2022-10-24T11:08:14.830Z,21.90
2022-10-24T11:11:07.850Z,24.45
2022-10-24T11:13:40.527Z,21.30
2022-10-24T11:16:14.348Z,21.65
2022-10-24T11:18:45.417Z,22.15
2022-10-24T11:21:14.706Z,19.95
2022-10-24T11:23:53.530Z,16.67
2022-10-24T11:26:23.689Z,19.30
2022-10-24T11:29:22.718Z,20.85
2022-10-24T11:31:55.443Z,16.17
2022-10-24T11:34:28.959Z,18.20
2022-10-24T11:37:06.142Z,15.13
2022-10-24T11:39:34.970Z,16.38
2022-10-24T11:42:08.292Z,16.45
2022-10-24T11:44:40.193Z,15.93
2022-10-24T11:47:24.983Z,15.70
2022-10-24T11:50:30.101Z,13.00
2022-10-24T11:53:15.068Z,13.18
2022-10-24T11:55:47.440Z,14.55
2022-10-24T11:58:19.700Z,16.60
2022-10-24T12:00:58.847Z,17.40
2022-10-24T12:03:28.606Z,14.10
2022-10-24T12:06:27.478Z,14.30
2022-10-24T12:09:20.255Z,11.55
2022-10-24T12:12:00.739Z,9.48
2022-10-24T12:14:42.555Z,9.75
2022-10-24T12:17:27.162Z,11.07
2022-10-24T12:19:54.465Z,11.65
2022-10-24T12:22:27.907Z,9.52
2022-10-24T12:25:33.208Z,10.07
2022-10-24T12:28:03.129Z,11.60
2022-10-24T12:30:36.433Z,9.43
2022-10-24T12:33:25.946Z,9.38
2022-10-24T12:35:58.917Z,11.38
2022-10-24T12:38:28.796Z,10.43
2022-10-24T12:41:28.575Z,10.23
2022-10-24T12:44:30.014Z,13.48
2022-10-24T12:46:56.958Z,15.57
2022-10-24T12:49:30.937Z,13.40
2022-10-24T12:51:58.679Z,12.98
2022-10-24T12:54:54.675Z,13.25
2022-10-24T12:57:28.556Z,12.65
2022-10-24T13:00:00.649Z,14.35
2022-10-24T13:02:33.678Z,11.52
2022-10-24T13:05:18.152Z,11.80
2022-10-24T13:08:22.530Z,12.27
2022-10-24T13:10:53.847Z,13.05
2022-10-24T13:13:39.412Z,13.07
2022-10-24T13:16:12.264Z,13.73
2022-10-24T13:19:03.832Z,13.40
2022-10-24T13:21:45.630Z,14.55
2022-10-24T13:24:28.569Z,12.95
2022-10-24T13:26:58.179Z,19.00
2022-10-24T13:29:28.076Z,18.83
2022-10-24T13:32:05.240Z,13.80
2022-10-24T13:34:50.263Z,17.73
2022-10-24T13:37:30.420Z,19.58
2022-10-24T13:40:01.340Z,17.33
2022-10-24T13:43:04.725Z,23.10
2022-10-24T13:45:51.950Z,19.30
2022-10-24T13:48:23.922Z,16.77
2022-10-24T13:51:19.702Z,17.27
2022-10-24T13:53:51.292Z,18.60
2022-10-24T13:56:19.079Z,18.50
2022-10-24T13:58:46.663Z,22.02
2022-10-24T14:01:30.242Z,20.85
2022-10-24T14:03:59.337Z,21.20
2022-10-24T14:06:31.688Z,20.05
2022-10-24T14:09:07.222Z,21.80
2022-10-24T14:14:06.051Z,20.00
2022-10-24T14:16:34.839Z,20.08
2022-10-24T14:19:29.807Z,17.42
2022-10-24T14:21:58.590Z,22.25
2022-10-24T14:24:25.634Z,20.23
2022-10-24T14:26:56.935Z,18.95
2022-10-24T14:29:32.477Z,19.63
2022-10-24T14:32:07.969Z,22.63
2022-10-24T14:34:36.927Z,22.95
2022-10-24T14:37:13.950Z,21.73
2022-10-24T14:39:41.461Z,21.13
2022-10-24T14:42:15.667Z,19.05
2022-10-24T14:44:46.274Z,20.83
2022-10-24T14:47:26.685Z,19.63
2022-10-24T14:49:53.721Z,20.45
2022-10-24T14:52:26.088Z,24.73
2022-10-24T14:55:04.379Z,28.55
2022-10-24T14:57:32.956Z,23.27
2022-10-24T15:00:07.603Z,22.88
2022-10-24T15:02:42.902Z,26.67
2022-10-24T15:07:57.168Z,28.90
2022-10-24T15:10:37.262Z,29.38
2022-10-24T15:13:14.925Z,22.17
2022-10-24T15:15:44.469Z,23.35
2022-10-24T15:18:30.677Z,26.30
2022-10-24T15:21:04.916Z,24.55
2022-10-24T15:23:37.435Z,25.90
2022-10-24T15:26:10.639Z,28.48
2022-10-24T15:28:45.449Z,25.63
2022-10-24T15:31:14.444Z,24.40
2022-10-24T15:33:41.296Z,27.42
2022-10-24T15:36:20.001Z,28.70
2022-10-24T15:38:48.552Z,35.45
2022-10-24T15:41:16.424Z,33.08
2022-10-24T15:43:43.271Z,31.08
2022-10-24T15:46:10.026Z,28.15
2022-10-24T15:48:39.368Z,31.98
2022-10-24T15:51:06.322Z,31.65
2022-10-24T15:53:33.237Z,31.60
2022-10-24T15:55:59.986Z,31.60
2022-10-24T15:58:28.774Z,33.28
2022-10-24T16:00:55.730Z,30.13
2022-10-24T16:03:23.756Z,34.13
2022-10-24T16:05:56.066Z,38.63
2022-10-24T16:08:24.100Z,37.17
2022-10-24T16:10:52.397Z,36.22
2022-10-24T16:13:21.629Z,37.13
2022-10-24T16:15:49.598Z,31.08
2022-10-24T16:18:17.022Z,34.90
2022-10-24T16:20:44.149Z,40.28
2022-10-24T16:23:13.758Z,39.35
2022-10-24T16:25:40.755Z,40.13
2022-10-24T16:28:08.152Z,42.95
2022-10-24T16:30:38.020Z,44.33
2022-10-24T16:33:05.463Z,57.47
2022-10-24T16:35:34.672Z,47.80
2022-10-24T16:38:02.707Z,41.47
2022-10-24T16:40:30.286Z,43.72
2022-10-24T16:43:00.187Z,42.28
2022-10-24T16:45:27.263Z,48.13
2022-10-24T16:47:54.057Z,44.83
2022-10-24T16:50:24.765Z,53.92
2022-10-24T16:52:56.771Z,47.17
2022-10-24T16:55:23.622Z,40.25
2022-10-24T16:57:50.439Z,47.10
2022-10-24T17:00:19.193Z,46.50
2022-10-24T17:02:51.307Z,43.50
2022-10-24T17:05:20.067Z,44.55
2022-10-24T17:07:47.287Z,45.05
2022-10-24T17:10:14.716Z,44.25
2022-10-24T17:12:43.367Z,46.70
2022-10-24T17:15:11.697Z,47.22
2022-10-24T17:17:39.928Z,44.25
2022-10-24T17:20:09.849Z,48.25
2022-10-24T17:22:37.935Z,52.05
2022-10-24T17:25:06.245Z,49.40
2022-10-24T17:27:33.254Z,53.17
2022-10-24T17:30:00.141Z,53.90
2022-10-24T17:32:27.070Z,51.78
2022-10-24T17:34:55.326Z,46.60
2022-10-24T17:37:32.879Z,56.58
2022-10-24T17:40:04.856Z,54.15
2022-10-24T17:42:31.863Z,50.15
2022-10-24T17:44:58.773Z,48.05
2022-10-24T17:47:25.687Z,47.03
2022-10-24T17:49:52.444Z,44.22
2022-10-24T17:52:23.726Z,41.50
2022-10-24T17:54:51.071Z,44.78
2022-10-24T17:57:17.917Z,39.28
2022-10-24T17:59:44.871Z,34.42
2022-10-24T18:02:13.947Z,37.15
2022-10-24T18:04:42.881Z,41.35
2022-10-24T18:07:09.982Z,38.55
2022-10-24T18:09:39.112Z,35.92
2022-10-24T18:12:06.689Z,40.78
2022-10-24T18:14:35.841Z,37.92
2022-10-24T18:17:02.765Z,37.10
2022-10-24T18:19:29.595Z,37.03
2022-10-24T18:21:56.485Z,36.30
2022-10-24T18:24:23.224Z,39.00
2022-10-24T18:26:49.992Z,39.08
2022-10-24T18:29:16.819Z,39.75
2022-10-24T18:31:43.637Z,46.67
2022-10-24T18:34:10.494Z,33.33
2022-10-24T18:36:37.448Z,36.10
2022-10-24T18:39:05.564Z,36.72
2022-10-24T18:41:48.551Z,38.65
2022-10-24T18:44:25.432Z,34.70
2022-10-24T18:46:53.947Z,35.47
2022-10-24T18:49:21.045Z,32.90
2022-10-24T18:52:03.941Z,36.72
2022-10-24T18:54:30.997Z,39.40
2022-10-24T18:56:59.099Z,36.00
2022-10-24T18:59:26.151Z,40.08
2022-10-24T19:02:25.839Z,37.97
2022-10-24T19:05:18.611Z,41.55
2022-10-24T19:07:46.323Z,38.22
2022-10-24T19:10:25.904Z,41.08
2022-10-24T19:12:54.455Z,36.20
2022-10-24T19:15:21.985Z,35.97
2022-10-24T19:17:50.957Z,38.95
2022-10-24T19:20:23.513Z,38.60
2022-10-24T19:22:51.065Z,35.50
2022-10-24T19:25:18.030Z,38.13
2022-10-24T19:27:44.993Z,37.95
2022-10-24T19:30:12.728Z,40.10
2022-10-24T19:32:39.571Z,35.15
2022-10-24T19:35:06.904Z,34.50
2022-10-24T19:37:33.788Z,33.47
2022-10-24T19:40:00.617Z,42.38
2022-10-24T19:42:27.497Z,38.47
2022-10-24T19:44:56.458Z,38.10
2022-10-24T19:47:23.459Z,34.42
2022-10-24T19:49:50.290Z,34.63
2022-10-24T19:52:17.253Z,39.53
2022-10-24T19:54:44.593Z,39.22
2022-10-24T19:57:11.914Z,36.50
2022-10-24T19:59:38.780Z,37.85
2022-10-24T20:02:05.897Z,45.42
2022-10-24T20:04:33.624Z,41.65
2022-10-24T20:07:00.428Z,40.90
2022-10-24T20:09:27.169Z,46.88
2022-10-24T20:11:53.907Z,37.97
2022-10-24T20:14:20.757Z,36.70
2022-10-24T20:16:47.505Z,39.00
2022-10-24T20:19:14.316Z,37.45
2022-10-24T20:21:41.137Z,41.03
2022-10-24T20:24:08.251Z,37.55
2022-10-24T20:26:35.212Z,41.13
2022-10-24T20:29:03.584Z,42.22
2022-10-24T20:31:36.553Z,40.72
2022-10-24T20:34:09.578Z,39.90
2022-10-24T20:36:38.345Z,39.97
2022-10-24T20:39:06.898Z,44.67
2022-10-24T20:41:35.006Z,40.75
2022-10-24T20:44:02.660Z,44.15
2022-10-24T20:46:29.499Z,41.30
2022-10-24T20:48:56.976Z,41.28
2022-10-24T20:51:23.789Z,40.72
2022-10-24T20:53:50.638Z,42.08
2022-10-24T20:56:22.092Z,41.17
2022-10-24T20:58:50.941Z,34.42
2022-10-24T21:01:23.420Z,40.78
2022-10-24T21:03:51.644Z,40.25
2022-10-24T21:06:21.125Z,43.40
2022-10-24T21:08:49.236Z,43.88
2022-10-24T21:11:18.396Z,42.53
2022-10-24T21:13:45.727Z,42.72
2022-10-24T21:16:13.302Z,44.50
2022-10-24T21:18:40.369Z,41.60
2022-10-24T21:21:12.239Z,49.92
2022-10-24T21:23:39.316Z,44.42
2022-10-24T21:26:09.020Z,43.50
2022-10-24T21:28:36.636Z,43.35
2022-10-24T21:31:11.906Z,46.97
2022-10-24T21:33:41.330Z,48.63
2022-10-24T21:36:20.056Z,40.97
2022-10-24T21:38:48.557Z,45.90
2022-10-24T21:41:15.986Z,45.50
2022-10-24T21:43:43.140Z,43.33
2022-10-24T21:46:12.929Z,50.80
2022-10-24T21:48:41.110Z,47.03
2022-10-24T21:51:13.863Z,43.35
2022-10-24T21:53:43.118Z,40.10
2022-10-24T21:56:13.359Z,45.85
2022-10-24T21:58:40.883Z,44.30
2022-10-24T22:01:16.349Z,45.00
2022-10-24T22:03:43.573Z,41.78
2022-10-24T22:06:12.512Z,42.75
2022-10-24T22:08:39.355Z,39.83
2022-10-24T22:11:09.120Z,46.85
2022-10-24T22:13:36.780Z,41.90
2022-10-24T22:16:05.280Z,44.63
2022-10-24T22:18:32.953Z,39.33
2022-10-24T22:21:01.581Z,37.92
2022-10-24T22:23:29.097Z,42.30
2022-10-24T22:25:56.091Z,44.25
2022-10-24T22:28:22.843Z,43.28
2022-10-24T22:30:49.893Z,45.40
2022-10-24T22:33:23.804Z,43.78
2022-10-24T22:35:58.101Z,39.03
2022-10-24T22:38:25.149Z,41.35
2022-10-24T22:43:24.227Z,40.55
2022-10-24T22:46:05.364Z,39.38
2022-10-24T22:48:35.945Z,38.75
2022-10-24T22:51:02.912Z,40.25
2022-10-24T22:53:31.168Z,41.75
2022-10-24T22:56:13.484Z,41.22
2022-10-24T22:58:42.510Z,38.35
2022-10-24T23:01:27.678Z,40.63
2022-10-24T23:04:15.731Z,38.88
2022-10-24T23:07:20.557Z,43.53
2022-10-24T23:09:48.269Z,35.95
2022-10-24T23:12:17.244Z,35.45
2022-10-24T23:14:45.113Z,34.80
2022-10-24T23:17:28.444Z,39.17
2022-10-24T23:19:56.831Z,37.83
2022-10-24T23:22:27.724Z,36.35
2022-10-24T23:24:57.867Z,41.63
2022-10-24T23:27:39.901Z,41.80
2022-10-24T23:30:22.084Z,45.08
2022-10-24T23:32:50.752Z,36.97
2022-10-24T23:35:19.859Z,35.20
2022-10-24T23:37:49.557Z,35.53
2022-10-24T23:40:33.586Z,35.55
2022-10-24T23:43:01.640Z,35.85
2022-10-24T23:45:47.936Z,36.63
2022-10-24T23:50:53.172Z,37.70
2022-10-24T23:53:50.277Z,33.13
2022-10-24T23:56:19.424Z,35.45
2022-10-24T23:58:46.472Z,33.47
